sensor_id;sensor_type;location;lat;lon;timestamp;temperature;humidity
45685;DHT22;46836;48.388;16.210;2023-07-22T00:00:58;19.80;99.90
45685;DHT22;46836;48.388;16.210;2023-07-22T00:03:26;19.80;99.90
45685;DHT22;46836;48.388;16.210;2023-07-22T00:06:11;19.80;99.90
45685;DHT22;46836;48.388;16.210;2023-07-22T00:08:38;19.60;99.90
45685;DHT22;46836;48.388;16.210;2023-07-22T00:11:06;19.40;99.90
45685;DHT22;46836;48.388;16.210;2023-07-22T00:13:34;19.30;99.90
45685;DHT22;46836;48.388;16.210;2023-07-22T00:16:01;19.30;99.90
45685;DHT22;46836;48.388;16.210;2023-07-22T00:18:31;19.20;99.90
45685;DHT22;46836;48.388;16.210;2023-07-22T00:20:59;19.30;99.90
45685;DHT22;46836;48.388;16.210;2023-07-22T00:23:26;19.40;99.90
45685;DHT22;46836;48.388;16.210;2023-07-22T00:25:53;19.40;99.90
45685;DHT22;46836;48.388;16.210;2023-07-22T00:28:20;19.60;99.90
45685;DHT22;46836;48.388;16.210;2023-07-22T00:30:47;19.60;99.90
45685;DHT22;46836;48.388;16.210;2023-07-22T00:33:16;19.60;99.90
45685;DHT22;46836;48.388;16.210;2023-07-22T00:35:47;19.40;99.90
45685;DHT22;46836;48.388;16.210;2023-07-22T00:38:17;19.40;99.90
45685;DHT22;46836;48.388;16.210;2023-07-22T00:40:45;19.30;99.90
45685;DHT22;46836;48.388;16.210;2023-07-22T00:43:12;19.20;99.90
45685;DHT22;46836;48.388;16.210;2023-07-22T00:45:39;19.10;99.90
45685;DHT22;46836;48.388;16.210;2023-07-22T00:48:07;19.00;99.90
45685;DHT22;46836;48.388;16.210;2023-07-22T00:50:35;19.00;99.90
45685;DHT22;46836;48.388;16.210;2023-07-22T00:53:03;19.00;99.90
45685;DHT22;46836;48.388;16.210;2023-07-22T00:55:32;19.10;99.90
45685;DHT22;46836;48.388;16.210;2023-07-22T00:58:00;19.20;99.90
45685;DHT22;46836;48.388;16.210;2023-07-22T01:00:28;19.40;99.90
45685;DHT22;46836;48.388;16.210;2023-07-22T01:02:55;19.30;99.90
45685;DHT22;46836;48.388;16.210;2023-07-22T01:05:22;19.40;99.90
45685;DHT22;46836;48.388;16.210;2023-07-22T01:07:50;19.40;99.90
45685;DHT22;46836;48.388;16.210;2023-07-22T01:10:17;19.30;99.90
45685;DHT22;46836;48.388;16.210;2023-07-22T01:12:45;19.50;99.90
45685;DHT22;46836;48.388;16.210;2023-07-22T01:15:12;19.50;99.90
45685;DHT22;46836;48.388;16.210;2023-07-22T01:17:39;19.60;99.90
45685;DHT22;46836;48.388;16.210;2023-07-22T01:20:07;19.60;99.90
45685;DHT22;46836;48.388;16.210;2023-07-22T01:22:34;19.50;99.90
45685;DHT22;46836;48.388;16.210;2023-07-22T01:25:03;19.40;99.90
45685;DHT22;46836;48.388;16.210;2023-07-22T01:27:30;19.40;99.90
45685;DHT22;46836;48.388;16.210;2023-07-22T01:29:57;19.30;99.90
45685;DHT22;46836;48.388;16.210;2023-07-22T01:32:24;19.30;99.90
45685;DHT22;46836;48.388;16.210;2023-07-22T01:34:51;19.20;99.90
45685;DHT22;46836;48.388;16.210;2023-07-22T01:37:18;19.20;99.90
45685;DHT22;46836;48.388;16.210;2023-07-22T01:39:46;19.20;99.90
45685;DHT22;46836;48.388;16.210;2023-07-22T01:42:13;19.20;99.90
45685;DHT22;46836;48.388;16.210;2023-07-22T01:44:40;19.10;99.90
45685;DHT22;46836;48.388;16.210;2023-07-22T01:47:07;19.10;99.90
45685;DHT22;46836;48.388;16.210;2023-07-22T01:49:34;19.30;99.90
45685;DHT22;46836;48.388;16.210;2023-07-22T01:52:01;19.50;99.90
45685;DHT22;46836;48.388;16.210;2023-07-22T01:54:28;19.60;99.90
45685;DHT22;46836;48.388;16.210;2023-07-22T01:56:55;19.50;99.90
45685;DHT22;46836;48.388;16.210;2023-07-22T01:59:22;19.40;99.90
45685;DHT22;46836;48.388;16.210;2023-07-22T02:01:49;19.30;99.90
45685;DHT22;46836;48.388;16.210;2023-07-22T02:04:17;19.30;99.90
45685;DHT22;46836;48.388;16.210;2023-07-22T02:06:44;19.20;99.90
45685;DHT22;46836;48.388;16.210;2023-07-22T02:09:11;19.20;99.90
45685;DHT22;46836;48.388;16.210;2023-07-22T02:11:40;19.10;99.90
45685;DHT22;46836;48.388;16.210;2023-07-22T02:14:07;19.10;99.90
45685;DHT22;46836;48.388;16.210;2023-07-22T02:16:35;19.00;99.90
45685;DHT22;46836;48.388;16.210;2023-07-22T02:19:04;19.00;99.90
45685;DHT22;46836;48.388;16.210;2023-07-22T02:21:31;19.00;99.90
45685;DHT22;46836;48.388;16.210;2023-07-22T02:23:59;19.00;99.90
45685;DHT22;46836;48.388;16.210;2023-07-22T02:26:26;19.00;99.90
45685;DHT22;46836;48.388;16.210;2023-07-22T02:28:54;19.10;99.90
45685;DHT22;46836;48.388;16.210;2023-07-22T02:31:21;19.20;99.90
45685;DHT22;46836;48.388;16.210;2023-07-22T02:33:49;19.30;99.90
45685;DHT22;46836;48.388;16.210;2023-07-22T02:36:17;19.30;99.90
45685;DHT22;46836;48.388;16.210;2023-07-22T02:38:44;19.30;99.90
45685;DHT22;46836;48.388;16.210;2023-07-22T02:41:11;19.30;99.90
45685;DHT22;46836;48.388;16.210;2023-07-22T02:43:38;19.40;99.90
45685;DHT22;46836;48.388;16.210;2023-07-22T02:46:07;19.30;99.90
45685;DHT22;46836;48.388;16.210;2023-07-22T02:48:35;19.30;99.90
45685;DHT22;46836;48.388;16.210;2023-07-22T02:51:07;19.40;99.90
45685;DHT22;46836;48.388;16.210;2023-07-22T02:53:35;19.30;99.90
45685;DHT22;46836;48.388;16.210;2023-07-22T02:56:05;19.20;99.90
45685;DHT22;46836;48.388;16.210;2023-07-22T02:58:37;19.10;99.90
45685;DHT22;46836;48.388;16.210;2023-07-22T03:01:05;19.10;99.90
45685;DHT22;46836;48.388;16.210;2023-07-22T03:03:36;19.00;99.90
45685;DHT22;46836;48.388;16.210;2023-07-22T03:06:04;19.00;99.90
45685;DHT22;46836;48.388;16.210;2023-07-22T03:08:31;19.00;99.90
45685;DHT22;46836;48.388;16.210;2023-07-22T03:10:58;19.00;99.90
45685;DHT22;46836;48.388;16.210;2023-07-22T03:13:25;18.90;99.90
45685;DHT22;46836;48.388;16.210;2023-07-22T03:15:57;18.80;99.90
45685;DHT22;46836;48.388;16.210;2023-07-22T03:18:25;18.70;99.90
45685;DHT22;46836;48.388;16.210;2023-07-22T03:20:52;18.60;99.90
45685;DHT22;46836;48.388;16.210;2023-07-22T03:23:19;18.60;99.90
45685;DHT22;46836;48.388;16.210;2023-07-22T03:25:48;18.50;99.90
45685;DHT22;46836;48.388;16.210;2023-07-22T03:28:15;18.50;99.90
45685;DHT22;46836;48.388;16.210;2023-07-22T03:30:43;18.40;99.90
45685;DHT22;46836;48.388;16.210;2023-07-22T03:33:10;18.40;99.90
45685;DHT22;46836;48.388;16.210;2023-07-22T03:35:37;18.40;99.90
45685;DHT22;46836;48.388;16.210;2023-07-22T03:38:06;18.40;99.90
45685;DHT22;46836;48.388;16.210;2023-07-22T03:40:33;18.30;99.90
45685;DHT22;46836;48.388;16.210;2023-07-22T03:43:00;18.30;99.90
45685;DHT22;46836;48.388;16.210;2023-07-22T03:45:28;18.30;99.90
45685;DHT22;46836;48.388;16.210;2023-07-22T03:47:59;18.30;99.90
45685;DHT22;46836;48.388;16.210;2023-07-22T03:50:28;18.30;99.90
45685;DHT22;46836;48.388;16.210;2023-07-22T03:52:55;18.30;99.90
45685;DHT22;46836;48.388;16.210;2023-07-22T03:55:22;18.30;99.90
45685;DHT22;46836;48.388;16.210;2023-07-22T03:57:49;18.40;99.90
45685;DHT22;46836;48.388;16.210;2023-07-22T04:00:16;18.50;99.90
45685;DHT22;46836;48.388;16.210;2023-07-22T04:02:43;18.50;99.90
45685;DHT22;46836;48.388;16.210;2023-07-22T04:05:11;18.50;99.90
45685;DHT22;46836;48.388;16.210;2023-07-22T04:07:38;18.50;99.90
45685;DHT22;46836;48.388;16.210;2023-07-22T04:10:06;18.60;99.90
45685;DHT22;46836;48.388;16.210;2023-07-22T04:12:34;18.70;99.90
45685;DHT22;46836;48.388;16.210;2023-07-22T04:15:01;18.70;99.90
45685;DHT22;46836;48.388;16.210;2023-07-22T04:17:29;18.90;99.90
45685;DHT22;46836;48.388;16.210;2023-07-22T04:19:56;19.00;99.90
45685;DHT22;46836;48.388;16.210;2023-07-22T04:22:23;19.20;99.90
45685;DHT22;46836;48.388;16.210;2023-07-22T04:24:50;19.30;99.90
45685;DHT22;46836;48.388;16.210;2023-07-22T04:27:18;19.40;99.90
45685;DHT22;46836;48.388;16.210;2023-07-22T04:29:45;19.50;99.90
45685;DHT22;46836;48.388;16.210;2023-07-22T04:32:12;19.70;99.90
45685;DHT22;46836;48.388;16.210;2023-07-22T04:34:39;19.70;99.90
45685;DHT22;46836;48.388;16.210;2023-07-22T04:37:07;19.70;99.90
45685;DHT22;46836;48.388;16.210;2023-07-22T04:39:34;19.70;99.90
45685;DHT22;46836;48.388;16.210;2023-07-22T04:42:01;19.80;99.90
45685;DHT22;46836;48.388;16.210;2023-07-22T04:44:28;19.70;99.90
45685;DHT22;46836;48.388;16.210;2023-07-22T04:46:55;19.80;99.90
45685;DHT22;46836;48.388;16.210;2023-07-22T04:49:22;19.80;99.90
45685;DHT22;46836;48.388;16.210;2023-07-22T04:51:49;19.80;99.90
45685;DHT22;46836;48.388;16.210;2023-07-22T04:54:17;19.90;99.90
45685;DHT22;46836;48.388;16.210;2023-07-22T04:56:45;19.90;99.90
45685;DHT22;46836;48.388;16.210;2023-07-22T04:59:12;20.00;99.90
45685;DHT22;46836;48.388;16.210;2023-07-22T05:01:41;19.90;99.90
45685;DHT22;46836;48.388;16.210;2023-07-22T05:04:10;19.90;99.90
45685;DHT22;46836;48.388;16.210;2023-07-22T05:06:37;20.00;99.90
45685;DHT22;46836;48.388;16.210;2023-07-22T05:09:04;20.00;99.90
45685;DHT22;46836;48.388;16.210;2023-07-22T05:11:31;20.10;99.90
45685;DHT22;46836;48.388;16.210;2023-07-22T05:13:58;20.20;99.90
45685;DHT22;46836;48.388;16.210;2023-07-22T05:16:25;20.20;99.90
45685;DHT22;46836;48.388;16.210;2023-07-22T05:18:53;20.30;99.90
45685;DHT22;46836;48.388;16.210;2023-07-22T05:21:20;20.50;99.90
45685;DHT22;46836;48.388;16.210;2023-07-22T05:23:47;20.60;99.90
45685;DHT22;46836;48.388;16.210;2023-07-22T05:26:14;20.60;99.90
45685;DHT22;46836;48.388;16.210;2023-07-22T05:28:42;20.60;99.90
45685;DHT22;46836;48.388;16.210;2023-07-22T05:31:09;20.60;99.90
45685;DHT22;46836;48.388;16.210;2023-07-22T05:33:36;20.80;99.90
45685;DHT22;46836;48.388;16.210;2023-07-22T05:36:04;20.90;99.90
45685;DHT22;46836;48.388;16.210;2023-07-22T05:38:31;20.80;99.90
45685;DHT22;46836;48.388;16.210;2023-07-22T05:40:58;20.80;99.90
45685;DHT22;46836;48.388;16.210;2023-07-22T05:43:26;20.80;99.90
45685;DHT22;46836;48.388;16.210;2023-07-22T05:45:53;20.90;99.90
45685;DHT22;46836;48.388;16.210;2023-07-22T05:48:20;20.90;99.90
45685;DHT22;46836;48.388;16.210;2023-07-22T05:50:48;21.00;99.90
45685;DHT22;46836;48.388;16.210;2023-07-22T05:53:17;21.00;99.90
45685;DHT22;46836;48.388;16.210;2023-07-22T05:55:44;21.00;99.90
45685;DHT22;46836;48.388;16.210;2023-07-22T05:58:19;21.00;99.90
45685;DHT22;46836;48.388;16.210;2023-07-22T06:00:46;20.90;99.90
45685;DHT22;46836;48.388;16.210;2023-07-22T06:03:14;20.90;99.90
45685;DHT22;46836;48.388;16.210;2023-07-22T06:05:41;20.90;99.90
45685;DHT22;46836;48.388;16.210;2023-07-22T06:08:08;20.90;99.90
45685;DHT22;46836;48.388;16.210;2023-07-22T06:10:35;20.90;99.90
45685;DHT22;46836;48.388;16.210;2023-07-22T06:13:05;21.10;99.90
45685;DHT22;46836;48.388;16.210;2023-07-22T06:15:33;21.10;99.90
45685;DHT22;46836;48.388;16.210;2023-07-22T06:18:00;21.20;99.90
45685;DHT22;46836;48.388;16.210;2023-07-22T06:20:28;21.20;99.90
45685;DHT22;46836;48.388;16.210;2023-07-22T06:22:56;21.30;99.90
45685;DHT22;46836;48.388;16.210;2023-07-22T06:25:23;21.30;99.90
45685;DHT22;46836;48.388;16.210;2023-07-22T06:27:51;21.20;99.90
45685;DHT22;46836;48.388;16.210;2023-07-22T06:30:21;21.20;99.90
45685;DHT22;46836;48.388;16.210;2023-07-22T06:32:48;21.20;99.90
45685;DHT22;46836;48.388;16.210;2023-07-22T06:35:15;21.30;99.90
45685;DHT22;46836;48.388;16.210;2023-07-22T06:37:42;21.30;99.90
45685;DHT22;46836;48.388;16.210;2023-07-22T06:40:10;21.30;99.90
45685;DHT22;46836;48.388;16.210;2023-07-22T06:42:38;21.40;99.90
45685;DHT22;46836;48.388;16.210;2023-07-22T06:45:05;21.40;99.90
45685;DHT22;46836;48.388;16.210;2023-07-22T06:47:32;21.40;99.90
45685;DHT22;46836;48.388;16.210;2023-07-22T06:50:00;21.40;99.90
45685;DHT22;46836;48.388;16.210;2023-07-22T06:52:27;21.40;99.90
45685;DHT22;46836;48.388;16.210;2023-07-22T06:54:54;21.40;99.90
45685;DHT22;46836;48.388;16.210;2023-07-22T06:57:21;21.50;99.90
45685;DHT22;46836;48.388;16.210;2023-07-22T06:59:48;21.50;99.90
45685;DHT22;46836;48.388;16.210;2023-07-22T07:02:17;21.60;99.90
45685;DHT22;46836;48.388;16.210;2023-07-22T07:04:44;21.70;99.90
45685;DHT22;46836;48.388;16.210;2023-07-22T07:07:12;21.70;99.90
45685;DHT22;46836;48.388;16.210;2023-07-22T07:09:39;21.80;99.90
45685;DHT22;46836;48.388;16.210;2023-07-22T07:12:08;21.90;99.90
45685;DHT22;46836;48.388;16.210;2023-07-22T07:14:35;22.00;99.90
45685;DHT22;46836;48.388;16.210;2023-07-22T07:17:03;22.00;99.90
45685;DHT22;46836;48.388;16.210;2023-07-22T07:19:30;22.10;99.90
45685;DHT22;46836;48.388;16.210;2023-07-22T07:21:57;22.20;99.90
45685;DHT22;46836;48.388;16.210;2023-07-22T07:24:24;22.30;99.90
45685;DHT22;46836;48.388;16.210;2023-07-22T07:26:51;22.40;99.90
45685;DHT22;46836;48.388;16.210;2023-07-22T07:29:18;22.40;99.90
45685;DHT22;46836;48.388;16.210;2023-07-22T07:32:06;22.40;99.90
45685;DHT22;46836;48.388;16.210;2023-07-22T07:34:33;22.40;99.90
45685;DHT22;46836;48.388;16.210;2023-07-22T07:37:00;22.50;99.90
45685;DHT22;46836;48.388;16.210;2023-07-22T07:39:27;22.50;99.90
45685;DHT22;46836;48.388;16.210;2023-07-22T07:41:55;22.50;99.90
45685;DHT22;46836;48.388;16.210;2023-07-22T07:44:22;22.60;99.90
45685;DHT22;46836;48.388;16.210;2023-07-22T07:46:49;22.60;99.90
45685;DHT22;46836;48.388;16.210;2023-07-22T07:49:17;22.80;99.90
45685;DHT22;46836;48.388;16.210;2023-07-22T07:51:44;22.80;99.90
45685;DHT22;46836;48.388;16.210;2023-07-22T07:54:12;22.90;99.90
45685;DHT22;46836;48.388;16.210;2023-07-22T07:56:38;23.00;99.90
45685;DHT22;46836;48.388;16.210;2023-07-22T07:59:05;23.10;99.90
45685;DHT22;46836;48.388;16.210;2023-07-22T08:01:35;23.10;99.90
45685;DHT22;46836;48.388;16.210;2023-07-22T08:04:04;23.20;99.90
45685;DHT22;46836;48.388;16.210;2023-07-22T08:06:31;23.30;99.90
45685;DHT22;46836;48.388;16.210;2023-07-22T08:08:58;23.40;99.90
45685;DHT22;46836;48.388;16.210;2023-07-22T08:11:25;23.50;99.90
45685;DHT22;46836;48.388;16.210;2023-07-22T08:13:52;23.60;99.90
45685;DHT22;46836;48.388;16.210;2023-07-22T08:16:19;23.60;99.90
45685;DHT22;46836;48.388;16.210;2023-07-22T08:18:47;23.70;99.90
45685;DHT22;46836;48.388;16.210;2023-07-22T08:21:14;23.80;99.90
45685;DHT22;46836;48.388;16.210;2023-07-22T08:23:41;23.90;99.90
45685;DHT22;46836;48.388;16.210;2023-07-22T08:26:12;23.90;99.90
45685;DHT22;46836;48.388;16.210;2023-07-22T08:28:39;23.90;99.90
45685;DHT22;46836;48.388;16.210;2023-07-22T08:31:06;24.00;99.90
45685;DHT22;46836;48.388;16.210;2023-07-22T08:33:34;24.00;99.90
45685;DHT22;46836;48.388;16.210;2023-07-22T08:36:08;24.10;99.90
45685;DHT22;46836;48.388;16.210;2023-07-22T08:38:36;24.20;99.90
45685;DHT22;46836;48.388;16.210;2023-07-22T08:41:03;24.20;98.60
45685;DHT22;46836;48.388;16.210;2023-07-22T08:43:31;24.30;99.20
45685;DHT22;46836;48.388;16.210;2023-07-22T08:46:02;24.40;98.00
45685;DHT22;46836;48.388;16.210;2023-07-22T08:48:31;24.30;98.10
45685;DHT22;46836;48.388;16.210;2023-07-22T08:51:07;24.30;95.80
45685;DHT22;46836;48.388;16.210;2023-07-22T08:53:37;24.40;97.40
45685;DHT22;46836;48.388;16.210;2023-07-22T08:56:04;24.40;97.30
45685;DHT22;46836;48.388;16.210;2023-07-22T08:58:32;24.50;96.80
45685;DHT22;46836;48.388;16.210;2023-07-22T09:01:02;24.70;97.50
45685;DHT22;46836;48.388;16.210;2023-07-22T09:03:29;24.80;95.90
45685;DHT22;46836;48.388;16.210;2023-07-22T09:05:56;24.90;96.10
45685;DHT22;46836;48.388;16.210;2023-07-22T09:08:23;24.90;96.30
45685;DHT22;46836;48.388;16.210;2023-07-22T09:10:51;25.00;96.00
45685;DHT22;46836;48.388;16.210;2023-07-22T09:13:19;25.00;94.90
45685;DHT22;46836;48.388;16.210;2023-07-22T09:15:47;25.00;94.10
45685;DHT22;46836;48.388;16.210;2023-07-22T09:18:17;25.00;94.60
45685;DHT22;46836;48.388;16.210;2023-07-22T09:20:44;25.10;94.50
45685;DHT22;46836;48.388;16.210;2023-07-22T09:23:12;25.10;93.60
45685;DHT22;46836;48.388;16.210;2023-07-22T09:25:42;25.10;92.30
45685;DHT22;46836;48.388;16.210;2023-07-22T09:28:09;25.10;92.20
45685;DHT22;46836;48.388;16.210;2023-07-22T09:30:39;25.00;90.70
45685;DHT22;46836;48.388;16.210;2023-07-22T09:33:35;25.00;91.90
45685;DHT22;46836;48.388;16.210;2023-07-22T09:36:04;25.10;90.20
45685;DHT22;46836;48.388;16.210;2023-07-22T09:38:31;25.30;92.20
45685;DHT22;46836;48.388;16.210;2023-07-22T09:40:58;25.50;92.40
45685;DHT22;46836;48.388;16.210;2023-07-22T09:43:25;25.60;90.40
45685;DHT22;46836;48.388;16.210;2023-07-22T09:45:52;25.80;92.20
45685;DHT22;46836;48.388;16.210;2023-07-22T09:48:21;26.00;89.40
45685;DHT22;46836;48.388;16.210;2023-07-22T09:50:58;26.00;90.20
45685;DHT22;46836;48.388;16.210;2023-07-22T09:53:25;26.00;90.00
45685;DHT22;46836;48.388;16.210;2023-07-22T09:55:52;26.10;91.40
45685;DHT22;46836;48.388;16.210;2023-07-22T09:58:20;26.30;90.80
45685;DHT22;46836;48.388;16.210;2023-07-22T10:00:51;26.50;89.00
45685;DHT22;46836;48.388;16.210;2023-07-22T10:03:19;26.60;89.10
45685;DHT22;46836;48.388;16.210;2023-07-22T10:05:48;26.70;88.30
45685;DHT22;46836;48.388;16.210;2023-07-22T10:08:18;26.70;83.80
45685;DHT22;46836;48.388;16.210;2023-07-22T10:10:48;26.80;86.90
45685;DHT22;46836;48.388;16.210;2023-07-22T10:13:17;27.00;86.60
45685;DHT22;46836;48.388;16.210;2023-07-22T10:15:45;27.00;82.20
45685;DHT22;46836;48.388;16.210;2023-07-22T10:18:12;27.00;84.30
45685;DHT22;46836;48.388;16.210;2023-07-22T10:20:40;26.90;84.10
45685;DHT22;46836;48.388;16.210;2023-07-22T10:23:08;27.00;85.80
45685;DHT22;46836;48.388;16.210;2023-07-22T10:25:37;27.10;85.20
45685;DHT22;46836;48.388;16.210;2023-07-22T10:28:06;27.30;85.80
45685;DHT22;46836;48.388;16.210;2023-07-22T10:30:34;27.50;85.00
45685;DHT22;46836;48.388;16.210;2023-07-22T10:33:01;27.70;85.30
45685;DHT22;46836;48.388;16.210;2023-07-22T10:38:12;27.70;82.40
45685;DHT22;46836;48.388;16.210;2023-07-22T10:40:49;27.80;81.50
45685;DHT22;46836;48.388;16.210;2023-07-22T10:43:18;27.80;82.50
45685;DHT22;46836;48.388;16.210;2023-07-22T10:45:53;27.90;83.80
45685;DHT22;46836;48.388;16.210;2023-07-22T10:48:25;27.80;76.20
45685;DHT22;46836;48.388;16.210;2023-07-22T10:50:57;27.50;79.20
45685;DHT22;46836;48.388;16.210;2023-07-22T11:12:15;28.10;79.20
45685;DHT22;46836;48.388;16.210;2023-07-22T11:15:01;28.20;76.50
45685;DHT22;46836;48.388;16.210;2023-07-22T11:17:30;28.30;76.20
45685;DHT22;46836;48.388;16.210;2023-07-22T11:19:59;28.30;80.70
45685;DHT22;46836;48.388;16.210;2023-07-22T11:22:26;28.40;79.70
45685;DHT22;46836;48.388;16.210;2023-07-22T11:24:56;28.40;79.80
45685;DHT22;46836;48.388;16.210;2023-07-22T11:27:27;28.40;81.00
45685;DHT22;46836;48.388;16.210;2023-07-22T11:29:58;28.50;80.40
45685;DHT22;46836;48.388;16.210;2023-07-22T11:32:25;28.50;80.40
45685;DHT22;46836;48.388;16.210;2023-07-22T11:34:52;28.60;79.50
45685;DHT22;46836;48.388;16.210;2023-07-22T11:37:20;28.60;80.00
45685;DHT22;46836;48.388;16.210;2023-07-22T11:39:47;28.60;80.20
45685;DHT22;46836;48.388;16.210;2023-07-22T11:42:15;28.50;79.70
45685;DHT22;46836;48.388;16.210;2023-07-22T11:44:42;28.30;79.70
45685;DHT22;46836;48.388;16.210;2023-07-22T11:47:09;28.30;80.20
45685;DHT22;46836;48.388;16.210;2023-07-22T11:49:38;28.20;79.80
45685;DHT22;46836;48.388;16.210;2023-07-22T11:54:39;28.30;80.40
45685;DHT22;46836;48.388;16.210;2023-07-22T11:57:21;28.40;78.90
45685;DHT22;46836;48.388;16.210;2023-07-22T11:59:53;28.70;78.30
45685;DHT22;46836;48.388;16.210;2023-07-22T12:02:23;28.80;79.00
45685;DHT22;46836;48.388;16.210;2023-07-22T12:04:58;28.80;77.80
45685;DHT22;46836;48.388;16.210;2023-07-22T12:07:31;29.00;77.20
45685;DHT22;46836;48.388;16.210;2023-07-22T12:10:00;29.00;77.10
45685;DHT22;46836;48.388;16.210;2023-07-22T12:12:35;29.00;77.10
45685;DHT22;46836;48.388;16.210;2023-07-22T12:17:59;29.00;74.40
45685;DHT22;46836;48.388;16.210;2023-07-22T12:20:28;28.80;72.90
45685;DHT22;46836;48.388;16.210;2023-07-22T12:22:57;28.60;73.70
45685;DHT22;46836;48.388;16.210;2023-07-22T12:25:25;28.60;77.20
45685;DHT22;46836;48.388;16.210;2023-07-22T12:27:52;28.60;77.60
45685;DHT22;46836;48.388;16.210;2023-07-22T12:30:19;28.70;78.00
45685;DHT22;46836;48.388;16.210;2023-07-22T12:32:47;29.00;77.80
45685;DHT22;46836;48.388;16.210;2023-07-22T12:35:16;29.30;78.30
45685;DHT22;46836;48.388;16.210;2023-07-22T12:37:43;29.50;77.90
45685;DHT22;46836;48.388;16.210;2023-07-22T12:40:10;29.70;77.20
45685;DHT22;46836;48.388;16.210;2023-07-22T12:42:40;29.80;77.60
45685;DHT22;46836;48.388;16.210;2023-07-22T12:45:08;29.90;78.00
45685;DHT22;46836;48.388;16.210;2023-07-22T12:47:36;29.80;76.70
45685;DHT22;46836;48.388;16.210;2023-07-22T12:50:05;29.60;76.90
45685;DHT22;46836;48.388;16.210;2023-07-22T12:52:35;29.60;75.80
45685;DHT22;46836;48.388;16.210;2023-07-22T12:55:03;29.50;74.50
45685;DHT22;46836;48.388;16.210;2023-07-22T12:57:30;29.60;75.30
45685;DHT22;46836;48.388;16.210;2023-07-22T12:59:57;29.70;76.60
45685;DHT22;46836;48.388;16.210;2023-07-22T13:02:24;29.80;75.30
45685;DHT22;46836;48.388;16.210;2023-07-22T13:04:52;29.90;77.60
45685;DHT22;46836;48.388;16.210;2023-07-22T13:07:19;30.10;76.70
45685;DHT22;46836;48.388;16.210;2023-07-22T13:09:57;30.10;76.80
45685;DHT22;46836;48.388;16.210;2023-07-22T13:12:26;30.20;75.50
45685;DHT22;46836;48.388;16.210;2023-07-22T13:14:53;30.30;75.70
45685;DHT22;46836;48.388;16.210;2023-07-22T13:17:20;30.40;75.30
45685;DHT22;46836;48.388;16.210;2023-07-22T13:19:47;30.40;74.90
45685;DHT22;46836;48.388;16.210;2023-07-22T13:22:14;30.40;74.20
45685;DHT22;46836;48.388;16.210;2023-07-22T13:24:41;30.40;74.20
45685;DHT22;46836;48.388;16.210;2023-07-22T13:27:09;30.30;74.50
45685;DHT22;46836;48.388;16.210;2023-07-22T13:29:36;30.40;73.70
45685;DHT22;46836;48.388;16.210;2023-07-22T13:32:03;30.50;73.50
45685;DHT22;46836;48.388;16.210;2023-07-22T13:34:31;30.50;72.00
45685;DHT22;46836;48.388;16.210;2023-07-22T13:36:58;30.40;71.70
45685;DHT22;46836;48.388;16.210;2023-07-22T13:39:25;30.50;73.30
45685;DHT22;46836;48.388;16.210;2023-07-22T13:41:52;30.70;73.70
45685;DHT22;46836;48.388;16.210;2023-07-22T13:44:19;30.90;72.30
45685;DHT22;46836;48.388;16.210;2023-07-22T13:46:46;30.70;71.50
45685;DHT22;46836;48.388;16.210;2023-07-22T13:49:14;30.70;71.00
45685;DHT22;46836;48.388;16.210;2023-07-22T13:51:42;30.70;71.70
45685;DHT22;46836;48.388;16.210;2023-07-22T13:54:09;30.50;67.80
45685;DHT22;46836;48.388;16.210;2023-07-22T13:56:36;30.40;70.60
45685;DHT22;46836;48.388;16.210;2023-07-22T13:59:03;30.30;70.20
45685;DHT22;46836;48.388;16.210;2023-07-22T14:01:31;30.20;68.10
45685;DHT22;46836;48.388;16.210;2023-07-22T14:03:58;30.20;68.70
45685;DHT22;46836;48.388;16.210;2023-07-22T14:06:25;30.10;68.60
45685;DHT22;46836;48.388;16.210;2023-07-22T14:08:53;30.10;67.80
45685;DHT22;46836;48.388;16.210;2023-07-22T14:11:20;30.10;69.10
45685;DHT22;46836;48.388;16.210;2023-07-22T14:13:47;30.00;68.50
45685;DHT22;46836;48.388;16.210;2023-07-22T14:16:14;29.90;70.00
45685;DHT22;46836;48.388;16.210;2023-07-22T14:18:49;29.80;67.30
45685;DHT22;46836;48.388;16.210;2023-07-22T14:21:16;29.70;69.60
45685;DHT22;46836;48.388;16.210;2023-07-22T14:23:43;29.70;69.20
45685;DHT22;46836;48.388;16.210;2023-07-22T14:26:11;29.60;69.90
45685;DHT22;46836;48.388;16.210;2023-07-22T14:28:38;29.50;70.60
45685;DHT22;46836;48.388;16.210;2023-07-22T14:31:05;29.40;70.10
45685;DHT22;46836;48.388;16.210;2023-07-22T14:33:33;29.20;68.80
45685;DHT22;46836;48.388;16.210;2023-07-22T14:36:00;29.20;70.00
45685;DHT22;46836;48.388;16.210;2023-07-22T14:38:27;29.20;70.20
45685;DHT22;46836;48.388;16.210;2023-07-22T14:40:55;29.30;70.30
45685;DHT22;46836;48.388;16.210;2023-07-22T14:43:22;29.40;71.70
45685;DHT22;46836;48.388;16.210;2023-07-22T14:45:50;29.50;71.90
45685;DHT22;46836;48.388;16.210;2023-07-22T14:48:17;29.50;71.20
45685;DHT22;46836;48.388;16.210;2023-07-22T14:50:44;29.50;71.60
45685;DHT22;46836;48.388;16.210;2023-07-22T14:53:12;29.60;70.40
45685;DHT22;46836;48.388;16.210;2023-07-22T14:55:39;29.50;70.30
45685;DHT22;46836;48.388;16.210;2023-07-22T14:58:06;29.60;70.50
45685;DHT22;46836;48.388;16.210;2023-07-22T15:00:34;29.60;71.10
45685;DHT22;46836;48.388;16.210;2023-07-22T15:03:01;29.60;71.10
45685;DHT22;46836;48.388;16.210;2023-07-22T15:05:28;29.70;71.50
45685;DHT22;46836;48.388;16.210;2023-07-22T15:07:55;29.70;71.80
45685;DHT22;46836;48.388;16.210;2023-07-22T15:10:23;29.80;70.10
45685;DHT22;46836;48.388;16.210;2023-07-22T15:12:50;29.80;70.00
45685;DHT22;46836;48.388;16.210;2023-07-22T15:15:18;29.80;70.40
45685;DHT22;46836;48.388;16.210;2023-07-22T15:17:45;29.80;69.00
45685;DHT22;46836;48.388;16.210;2023-07-22T15:20:12;29.70;70.40
45685;DHT22;46836;48.388;16.210;2023-07-22T15:22:39;29.80;69.40
45685;DHT22;46836;48.388;16.210;2023-07-22T15:25:07;29.80;70.40
45685;DHT22;46836;48.388;16.210;2023-07-22T15:27:34;29.80;69.70
45685;DHT22;46836;48.388;16.210;2023-07-22T15:30:01;29.70;68.90
45685;DHT22;46836;48.388;16.210;2023-07-22T15:32:28;29.50;70.40
45685;DHT22;46836;48.388;16.210;2023-07-22T15:34:56;29.40;68.70
45685;DHT22;46836;48.388;16.210;2023-07-22T15:37:23;29.40;71.10
45685;DHT22;46836;48.388;16.210;2023-07-22T15:39:50;29.50;71.50
45685;DHT22;46836;48.388;16.210;2023-07-22T15:42:17;29.50;71.10
45685;DHT22;46836;48.388;16.210;2023-07-22T15:44:44;29.60;71.00
45685;DHT22;46836;48.388;16.210;2023-07-22T15:47:11;29.60;70.20